sensor_id;sensor_type;location;lat;lon;timestamp;P1;durP1;ratioP1;P2;durP2;ratioP2
55037;SDS011;40937;53.594;10.034;2022-08-21T00:00:15;10.93;;;5.43;;
55037;SDS011;40937;53.594;10.034;2022-08-21T00:02:45;10.93;;;5.97;;
55037;SDS011;40937;53.594;10.034;2022-08-21T00:05:13;8.98;;;5.97;;
55037;SDS011;40937;53.594;10.034;2022-08-21T00:07:40;9.63;;;5.22;;
55037;SDS011;40937;53.594;10.034;2022-08-21T00:10:09;9.65;;;6.38;;
55037;SDS011;40937;53.594;10.034;2022-08-21T00:12:36;10.00;;;6.38;;
55037;SDS011;40937;53.594;10.034;2022-08-21T00:15:04;9.68;;;5.97;;
55037;SDS011;40937;53.594;10.034;2022-08-21T00:17:31;8.40;;;6.25;;
55037;SDS011;40937;53.594;10.034;2022-08-21T00:19:58;9.38;;;6.07;;
55037;SDS011;40937;53.594;10.034;2022-08-21T00:22:24;7.35;;;5.63;;
55037;SDS011;40937;53.594;10.034;2022-08-21T00:24:51;7.47;;;5.45;;
55037;SDS011;40937;53.594;10.034;2022-08-21T00:27:19;10.57;;;6.75;;
55037;SDS011;40937;53.594;10.034;2022-08-21T00:29:46;7.57;;;6.38;;
55037;SDS011;40937;53.594;10.034;2022-08-21T00:32:12;9.18;;;5.90;;
55037;SDS011;40937;53.594;10.034;2022-08-21T00:34:45;12.38;;;5.88;;
55037;SDS011;40937;53.594;10.034;2022-08-21T00:37:12;6.85;;;5.82;;
55037;SDS011;40937;53.594;10.034;2022-08-21T00:39:38;7.88;;;5.97;;
55037;SDS011;40937;53.594;10.034;2022-08-21T00:42:05;10.75;;;6.45;;
55037;SDS011;40937;53.594;10.034;2022-08-21T00:44:33;11.82;;;5.65;;
55037;SDS011;40937;53.594;10.034;2022-08-21T00:47:00;10.48;;;6.20;;
55037;SDS011;40937;53.594;10.034;2022-08-21T00:49:27;11.10;;;5.70;;
55037;SDS011;40937;53.594;10.034;2022-08-21T00:51:57;7.00;;;5.50;;
55037;SDS011;40937;53.594;10.034;2022-08-21T00:54:27;9.70;;;6.30;;
55037;SDS011;40937;53.594;10.034;2022-08-21T00:56:58;7.45;;;5.60;;
55037;SDS011;40937;53.594;10.034;2022-08-21T00:59:34;12.95;;;6.35;;
55037;SDS011;40937;53.594;10.034;2022-08-21T01:05:38;9.95;;;5.78;;
55037;SDS011;40937;53.594;10.034;2022-08-21T01:08:58;7.05;;;5.57;;
55037;SDS011;40937;53.594;10.034;2022-08-21T01:11:49;7.22;;;5.88;;
55037;SDS011;40937;53.594;10.034;2022-08-21T01:14:36;7.72;;;5.47;;
55037;SDS011;40937;53.594;10.034;2022-08-21T01:17:45;11.30;;;5.85;;
55037;SDS011;40937;53.594;10.034;2022-08-21T01:20:43;8.07;;;5.78;;
55037;SDS011;40937;53.594;10.034;2022-08-21T01:23:48;13.75;;;5.60;;
55037;SDS011;40937;53.594;10.034;2022-08-21T01:27:05;8.77;;;5.97;;
55037;SDS011;40937;53.594;10.034;2022-08-21T01:29:58;10.48;;;6.45;;
55037;SDS011;40937;53.594;10.034;2022-08-21T01:39:00;9.27;;;6.20;;
55037;SDS011;40937;53.594;10.034;2022-08-21T01:41:52;9.15;;;6.18;;
55037;SDS011;40937;53.594;10.034;2022-08-21T01:44:38;9.15;;;6.28;;
55037;SDS011;40937;53.594;10.034;2022-08-21T01:47:17;6.63;;;5.97;;
55037;SDS011;40937;53.594;10.034;2022-08-21T01:50:16;6.88;;;6.18;;
55037;SDS011;40937;53.594;10.034;2022-08-21T01:56:36;8.85;;;6.30;;
55037;SDS011;40937;53.594;10.034;2022-08-21T01:59:16;7.13;;;6.00;;
55037;SDS011;40937;53.594;10.034;2022-08-21T02:02:41;6.70;;;5.97;;
55037;SDS011;40937;53.594;10.034;2022-08-21T02:08:33;8.32;;;5.85;;
55037;SDS011;40937;53.594;10.034;2022-08-21T02:12:01;9.00;;;5.82;;
55037;SDS011;40937;53.594;10.034;2022-08-21T02:15:33;7.20;;;5.40;;
55037;SDS011;40937;53.594;10.034;2022-08-21T02:18:43;9.57;;;5.75;;
55037;SDS011;40937;53.594;10.034;2022-08-21T02:22:23;9.52;;;5.82;;
55037;SDS011;40937;53.594;10.034;2022-08-21T02:28:17;5.72;;;4.63;;
55037;SDS011;40937;53.594;10.034;2022-08-21T02:31:11;9.38;;;5.97;;
55037;SDS011;40937;53.594;10.034;2022-08-21T02:34:07;8.98;;;6.00;;
55037;SDS011;40937;53.594;10.034;2022-08-21T02:37:21;9.05;;;5.28;;
55037;SDS011;40937;53.594;10.034;2022-08-21T02:40:29;5.78;;;5.18;;
55037;SDS011;40937;53.594;10.034;2022-08-21T02:47:11;9.82;;;5.70;;
55037;SDS011;40937;53.594;10.034;2022-08-21T02:51:01;7.13;;;5.80;;
55037;SDS011;40937;53.594;10.034;2022-08-21T02:57:51;10.27;;;5.22;;
55037;SDS011;40937;53.594;10.034;2022-08-21T03:00:43;6.65;;;4.82;;
55037;SDS011;40937;53.594;10.034;2022-08-21T03:04:01;6.00;;;5.32;;
55037;SDS011;40937;53.594;10.034;2022-08-21T03:07:17;6.35;;;5.63;;
55037;SDS011;40937;53.594;10.034;2022-08-21T03:10:08;7.72;;;5.35;;
55037;SDS011;40937;53.594;10.034;2022-08-21T03:13:10;7.05;;;5.35;;
55037;SDS011;40937;53.594;10.034;2022-08-21T03:16:05;9.07;;;5.47;;
55037;SDS011;40937;53.594;10.034;2022-08-21T03:18:52;10.82;;;5.47;;
55037;SDS011;40937;53.594;10.034;2022-08-21T03:21:44;7.32;;;5.40;;
55037;SDS011;40937;53.594;10.034;2022-08-21T03:24:15;11.73;;;5.50;;
55037;SDS011;40937;53.594;10.034;2022-08-21T03:26:43;7.68;;;4.95;;
55037;SDS011;40937;53.594;10.034;2022-08-21T03:29:10;9.93;;;5.53;;
55037;SDS011;40937;53.594;10.034;2022-08-21T03:31:36;7.47;;;5.85;;
55037;SDS011;40937;53.594;10.034;2022-08-21T03:34:03;6.82;;;5.70;;
55037;SDS011;40937;53.594;10.034;2022-08-21T03:36:30;6.63;;;5.00;;
55037;SDS011;40937;53.594;10.034;2022-08-21T03:38:57;6.22;;;4.90;;
55037;SDS011;40937;53.594;10.034;2022-08-21T03:41:23;7.55;;;6.35;;
55037;SDS011;40937;53.594;10.034;2022-08-21T03:43:51;7.82;;;6.00;;
55037;SDS011;40937;53.594;10.034;2022-08-21T03:46:18;7.03;;;5.10;;
55037;SDS011;40937;53.594;10.034;2022-08-21T03:48:45;9.25;;;5.57;;
55037;SDS011;40937;53.594;10.034;2022-08-21T03:51:12;6.18;;;4.78;;
55037;SDS011;40937;53.594;10.034;2022-08-21T03:53:38;5.88;;;5.28;;
55037;SDS011;40937;53.594;10.034;2022-08-21T03:56:05;6.95;;;5.20;;
55037;SDS011;40937;53.594;10.034;2022-08-21T03:58:33;9.10;;;5.65;;
55037;SDS011;40937;53.594;10.034;2022-08-21T04:01:02;5.70;;;5.18;;
55037;SDS011;40937;53.594;10.034;2022-08-21T04:03:29;6.20;;;5.45;;
55037;SDS011;40937;53.594;10.034;2022-08-21T04:05:56;5.97;;;5.22;;
55037;SDS011;40937;53.594;10.034;2022-08-21T04:08:23;9.13;;;6.18;;
55037;SDS011;40937;53.594;10.034;2022-08-21T04:10:50;7.32;;;5.88;;
55037;SDS011;40937;53.594;10.034;2022-08-21T04:13:18;9.98;;;6.10;;
55037;SDS011;40937;53.594;10.034;2022-08-21T04:15:46;7.43;;;5.10;;
55037;SDS011;40937;53.594;10.034;2022-08-21T04:18:14;9.60;;;5.22;;
55037;SDS011;40937;53.594;10.034;2022-08-21T04:20:41;8.25;;;5.50;;
55037;SDS011;40937;53.594;10.034;2022-08-21T04:23:11;8.68;;;5.10;;
55037;SDS011;40937;53.594;10.034;2022-08-21T04:25:37;7.63;;;6.05;;
55037;SDS011;40937;53.594;10.034;2022-08-21T04:28:04;8.68;;;5.65;;
55037;SDS011;40937;53.594;10.034;2022-08-21T04:30:31;7.68;;;5.65;;
55037;SDS011;40937;53.594;10.034;2022-08-21T04:33:00;6.30;;;5.70;;
55037;SDS011;40937;53.594;10.034;2022-08-21T04:35:29;6.18;;;5.60;;
55037;SDS011;40937;53.594;10.034;2022-08-21T04:37:57;6.40;;;5.75;;
55037;SDS011;40937;53.594;10.034;2022-08-21T04:40:24;6.43;;;5.15;;
55037;SDS011;40937;53.594;10.034;2022-08-21T04:42:53;6.30;;;5.70;;
55037;SDS011;40937;53.594;10.034;2022-08-21T04:45:22;8.70;;;5.40;;
55037;SDS011;40937;53.594;10.034;2022-08-21T04:47:50;6.50;;;5.28;;
55037;SDS011;40937;53.594;10.034;2022-08-21T04:50:20;7.25;;;5.95;;
55037;SDS011;40937;53.594;10.034;2022-08-21T04:53:03;6.40;;;5.47;;
55037;SDS011;40937;53.594;10.034;2022-08-21T04:55:30;5.57;;;5.07;;
55037;SDS011;40937;53.594;10.034;2022-08-21T04:57:57;7.07;;;5.55;;
55037;SDS011;40937;53.594;10.034;2022-08-21T05:00:25;8.82;;;5.72;;
55037;SDS011;40937;53.594;10.034;2022-08-21T05:02:54;6.10;;;5.18;;
55037;SDS011;40937;53.594;10.034;2022-08-21T05:05:47;8.10;;;5.80;;
55037;SDS011;40937;53.594;10.034;2022-08-21T05:08:41;8.45;;;5.57;;
55037;SDS011;40937;53.594;10.034;2022-08-21T05:11:20;6.95;;;4.57;;
55037;SDS011;40937;53.594;10.034;2022-08-21T05:14:15;7.53;;;4.95;;
55037;SDS011;40937;53.594;10.034;2022-08-21T05:17:14;4.00;;;3.70;;
55037;SDS011;40937;53.594;10.034;2022-08-21T05:20:16;8.05;;;4.53;;
55037;SDS011;40937;53.594;10.034;2022-08-21T05:23:15;7.60;;;4.82;;
55037;SDS011;40937;53.594;10.034;2022-08-21T05:26:42;9.02;;;5.20;;
55037;SDS011;40937;53.594;10.034;2022-08-21T05:29:43;9.40;;;4.55;;
55037;SDS011;40937;53.594;10.034;2022-08-21T05:33:27;9.23;;;4.47;;
55037;SDS011;40937;53.594;10.034;2022-08-21T05:36:16;11.02;;;3.75;;
55037;SDS011;40937;53.594;10.034;2022-08-21T05:39:13;6.13;;;3.50;;
55037;SDS011;40937;53.594;10.034;2022-08-21T05:42:17;8.35;;;3.70;;
55037;SDS011;40937;53.594;10.034;2022-08-21T05:45:19;10.57;;;3.60;;
55037;SDS011;40937;53.594;10.034;2022-08-21T05:48:16;6.07;;;3.42;;
55037;SDS011;40937;53.594;10.034;2022-08-21T05:50:44;6.75;;;3.88;;
55037;SDS011;40937;53.594;10.034;2022-08-21T05:53:12;7.38;;;3.88;;
55037;SDS011;40937;53.594;10.034;2022-08-21T05:55:40;3.90;;;3.33;;
55037;SDS011;40937;53.594;10.034;2022-08-21T05:58:08;9.45;;;3.88;;
55037;SDS011;40937;53.594;10.034;2022-08-21T06:00:35;6.65;;;3.15;;
55037;SDS011;40937;53.594;10.034;2022-08-21T06:03:02;5.47;;;3.25;;
55037;SDS011;40937;53.594;10.034;2022-08-21T06:05:29;6.05;;;3.10;;
55037;SDS011;40937;53.594;10.034;2022-08-21T06:07:56;7.43;;;3.58;;
55037;SDS011;40937;53.594;10.034;2022-08-21T06:10:22;4.82;;;3.05;;
55037;SDS011;40937;53.594;10.034;2022-08-21T06:12:52;11.13;;;3.00;;
55037;SDS011;40937;53.594;10.034;2022-08-21T06:15:20;5.82;;;3.45;;
55037;SDS011;40937;53.594;10.034;2022-08-21T06:17:47;6.22;;;3.05;;
55037;SDS011;40937;53.594;10.034;2022-08-21T06:20:14;6.57;;;3.63;;
55037;SDS011;40937;53.594;10.034;2022-08-21T06:22:40;6.53;;;3.40;;
55037;SDS011;40937;53.594;10.034;2022-08-21T06:25:07;6.25;;;3.58;;
55037;SDS011;40937;53.594;10.034;2022-08-21T06:27:35;6.05;;;2.92;;
55037;SDS011;40937;53.594;10.034;2022-08-21T06:30:02;3.25;;;2.63;;
55037;SDS011;40937;53.594;10.034;2022-08-21T06:32:30;6.90;;;3.15;;
55037;SDS011;40937;53.594;10.034;2022-08-21T06:34:57;7.82;;;3.50;;
55037;SDS011;40937;53.594;10.034;2022-08-21T06:37:24;7.65;;;3.53;;
55037;SDS011;40937;53.594;10.034;2022-08-21T06:39:50;5.80;;;3.47;;
55037;SDS011;40937;53.594;10.034;2022-08-21T06:42:17;4.97;;;3.35;;
55037;SDS011;40937;53.594;10.034;2022-08-21T06:47:22;9.55;;;3.55;;
55037;SDS011;40937;53.594;10.034;2022-08-21T06:57:45;7.35;;;2.65;;
55037;SDS011;40937;53.594;10.034;2022-08-21T07:01:03;9.23;;;2.63;;
55037;SDS011;40937;53.594;10.034;2022-08-21T07:05:09;12.27;;;3.22;;
55037;SDS011;40937;53.594;10.034;2022-08-21T07:12:43;5.18;;;2.25;;
55037;SDS011;40937;53.594;10.034;2022-08-21T07:15:37;5.78;;;2.55;;
55037;SDS011;40937;53.594;10.034;2022-08-21T07:18:20;7.72;;;2.78;;
55037;SDS011;40937;53.594;10.034;2022-08-21T07:24:12;20.20;;;4.25;;
55037;SDS011;40937;53.594;10.034;2022-08-21T07:26:39;13.52;;;3.67;;
55037;SDS011;40937;53.594;10.034;2022-08-21T07:29:06;6.03;;;3.08;;
55037;SDS011;40937;53.594;10.034;2022-08-21T07:31:34;6.35;;;3.15;;
55037;SDS011;40937;53.594;10.034;2022-08-21T07:34:01;8.93;;;3.28;;
55037;SDS011;40937;53.594;10.034;2022-08-21T07:36:28;7.13;;;2.85;;
55037;SDS011;40937;53.594;10.034;2022-08-21T07:38:55;7.40;;;2.50;;
55037;SDS011;40937;53.594;10.034;2022-08-21T07:41:22;6.00;;;2.40;;
55037;SDS011;40937;53.594;10.034;2022-08-21T07:43:51;4.45;;;2.42;;
55037;SDS011;40937;53.594;10.034;2022-08-21T07:46:18;5.57;;;2.50;;
55037;SDS011;40937;53.594;10.034;2022-08-21T07:48:47;3.53;;;2.58;;
55037;SDS011;40937;53.594;10.034;2022-08-21T07:51:14;5.88;;;2.60;;
55037;SDS011;40937;53.594;10.034;2022-08-21T07:53:47;5.07;;;2.25;;
55037;SDS011;40937;53.594;10.034;2022-08-21T07:56:15;6.15;;;2.90;;
55037;SDS011;40937;53.594;10.034;2022-08-21T07:58:42;7.43;;;2.75;;
55037;SDS011;40937;53.594;10.034;2022-08-21T08:01:09;5.28;;;2.88;;
55037;SDS011;40937;53.594;10.034;2022-08-21T09:06:50;4.72;;;2.67;;
55037;SDS011;40937;53.594;10.034;2022-08-21T09:10:02;7.70;;;2.67;;
55037;SDS011;40937;53.594;10.034;2022-08-21T09:14:19;7.88;;;3.00;;
55037;SDS011;40937;53.594;10.034;2022-08-21T09:22:06;19.02;;;2.80;;
55037;SDS011;40937;53.594;10.034;2022-08-21T09:36:59;9.60;;;3.08;;
55037;SDS011;40937;53.594;10.034;2022-08-21T09:44:32;7.03;;;2.38;;
55037;SDS011;40937;53.594;10.034;2022-08-21T09:52:10;10.70;;;3.55;;
55037;SDS011;40937;53.594;10.034;2022-08-21T09:59:46;8.73;;;2.95;;
55037;SDS011;40937;53.594;10.034;2022-08-21T10:04:00;6.60;;;2.83;;
55037;SDS011;40937;53.594;10.034;2022-08-21T11:17:43;8.52;;;2.30;;
55037;SDS011;40937;53.594;10.034;2022-08-21T11:20:18;5.57;;;2.13;;
55037;SDS011;40937;53.594;10.034;2022-08-21T11:22:54;6.00;;;2.10;;
55037;SDS011;40937;53.594;10.034;2022-08-21T11:25:27;5.65;;;2.28;;
55037;SDS011;40937;53.594;10.034;2022-08-21T11:28:01;8.13;;;2.40;;
55037;SDS011;40937;53.594;10.034;2022-08-21T11:30:39;5.60;;;2.42;;
55037;SDS011;40937;53.594;10.034;2022-08-21T11:33:20;5.18;;;2.42;;
55037;SDS011;40937;53.594;10.034;2022-08-21T11:35:57;4.88;;;1.70;;
55037;SDS011;40937;53.594;10.034;2022-08-21T11:38:33;9.60;;;2.50;;
55037;SDS011;40937;53.594;10.034;2022-08-21T11:41:08;4.85;;;2.70;;
55037;SDS011;40937;53.594;10.034;2022-08-21T11:43:46;5.40;;;2.80;;
55037;SDS011;40937;53.594;10.034;2022-08-21T11:46:23;4.03;;;2.30;;
55037;SDS011;40937;53.594;10.034;2022-08-21T11:49:28;5.43;;;2.15;;
55037;SDS011;40937;53.594;10.034;2022-08-21T11:52:07;4.05;;;1.77;;
55037;SDS011;40937;53.594;10.034;2022-08-21T11:54:40;4.50;;;1.98;;
55037;SDS011;40937;53.594;10.034;2022-08-21T11:57:15;6.45;;;2.13;;
55037;SDS011;40937;53.594;10.034;2022-08-21T11:59:47;3.30;;;2.13;;
55037;SDS011;40937;53.594;10.034;2022-08-21T12:02:40;7.60;;;2.53;;
55037;SDS011;40937;53.594;10.034;2022-08-21T12:05:20;5.28;;;2.15;;
55037;SDS011;40937;53.594;10.034;2022-08-21T12:07:59;3.33;;;2.03;;
55037;SDS011;40937;53.594;10.034;2022-08-21T12:10:31;2.35;;;1.63;;
55037;SDS011;40937;53.594;10.034;2022-08-21T12:13:09;6.65;;;1.75;;
55037;SDS011;40937;53.594;10.034;2022-08-21T12:15:39;3.83;;;1.85;;
55037;SDS011;40937;53.594;10.034;2022-08-21T12:18:22;2.75;;;1.85;;
55037;SDS011;40937;53.594;10.034;2022-08-21T12:20:57;11.05;;;2.40;;
55037;SDS011;40937;53.594;10.034;2022-08-21T12:23:29;3.63;;;1.58;;
55037;SDS011;40937;53.594;10.034;2022-08-21T12:31:52;2.53;;;1.73;;
55037;SDS011;40937;53.594;10.034;2022-08-21T12:34:25;3.35;;;1.85;;
55037;SDS011;40937;53.594;10.034;2022-08-21T12:36:59;5.97;;;2.22;;
55037;SDS011;40937;53.594;10.034;2022-08-21T12:39:30;4.63;;;1.92;;
55037;SDS011;40937;53.594;10.034;2022-08-21T12:42:03;3.45;;;1.90;;
55037;SDS011;40937;53.594;10.034;2022-08-21T12:44:35;4.32;;;2.00;;
55037;SDS011;40937;53.594;10.034;2022-08-21T12:47:14;3.25;;;2.05;;
55037;SDS011;40937;53.594;10.034;2022-08-21T12:49:52;3.72;;;1.60;;
55037;SDS011;40937;53.594;10.034;2022-08-21T12:52:24;4.20;;;1.60;;
55037;SDS011;40937;53.594;10.034;2022-08-21T13:22:41;3.80;;;1.80;;
55037;SDS011;40937;53.594;10.034;2022-08-21T14:09:00;3.65;;;2.13;;
55037;SDS011;40937;53.594;10.034;2022-08-21T14:16:41;5.15;;;1.98;;
55037;SDS011;40937;53.594;10.034;2022-08-21T14:23:32;5.18;;;1.65;;
55037;SDS011;40937;53.594;10.034;2022-08-21T14:28:23;4.82;;;1.67;;
55037;SDS011;40937;53.594;10.034;2022-08-21T14:35:28;3.90;;;1.98;;
55037;SDS011;40937;53.594;10.034;2022-08-21T14:36:47;4.55;;;2.13;;
55037;SDS011;40937;53.594;10.034;2022-08-21T17:34:55;7.75;;;2.45;;
55037;SDS011;40937;53.594;10.034;2022-08-21T17:46:08;2.38;;;1.67;;
55037;SDS011;40937;53.594;10.034;2022-08-21T17:48:54;1.85;;;1.58;;
55037;SDS011;40937;53.594;10.034;2022-08-21T17:51:29;3.55;;;2.33;;
55037;SDS011;40937;53.594;10.034;2022-08-21T17:53:56;2.90;;;1.90;;
55037;SDS011;40937;53.594;10.034;2022-08-21T17:56:23;9.27;;;2.17;;
55037;SDS011;40937;53.594;10.034;2022-08-21T17:58:54;5.40;;;2.35;;
55037;SDS011;40937;53.594;10.034;2022-08-21T18:01:20;4.15;;;2.13;;
55037;SDS011;40937;53.594;10.034;2022-08-21T18:03:47;9.27;;;2.97;;
55037;SDS011;40937;53.594;10.034;2022-08-21T18:06:14;9.93;;;2.83;;
55037;SDS011;40937;53.594;10.034;2022-08-21T18:08:43;12.73;;;3.90;;
55037;SDS011;40937;53.594;10.034;2022-08-21T18:11:10;11.70;;;4.65;;
55037;SDS011;40937;53.594;10.034;2022-08-21T18:13:36;11.20;;;4.05;;
55037;SDS011;40937;53.594;10.034;2022-08-21T18:16:05;13.75;;;4.72;;
55037;SDS011;40937;53.594;10.034;2022-08-21T18:18:35;8.88;;;3.97;;
55037;SDS011;40937;53.594;10.034;2022-08-21T18:21:06;12.50;;;4.10;;
55037;SDS011;40937;53.594;10.034;2022-08-21T18:23:32;10.50;;;4.05;;
55037;SDS011;40937;53.594;10.034;2022-08-21T18:26:00;14.57;;;5.53;;
55037;SDS011;40937;53.594;10.034;2022-08-21T18:28:27;14.10;;;4.32;;
55037;SDS011;40937;53.594;10.034;2022-08-21T18:30:56;7.47;;;3.05;;
55037;SDS011;40937;53.594;10.034;2022-08-21T18:33:23;9.70;;;3.40;;
55037;SDS011;40937;53.594;10.034;2022-08-21T18:35:50;11.77;;;3.58;;
55037;SDS011;40937;53.594;10.034;2022-08-21T18:38:17;11.68;;;3.53;;
55037;SDS011;40937;53.594;10.034;2022-08-21T18:40:46;8.10;;;3.08;;
55037;SDS011;40937;53.594;10.034;2022-08-21T18:43:18;6.03;;;2.65;;
55037;SDS011;40937;53.594;10.034;2022-08-21T18:45:45;7.80;;;2.95;;
55037;SDS011;40937;53.594;10.034;2022-08-21T18:48:12;8.13;;;3.30;;
55037;SDS011;40937;53.594;10.034;2022-08-21T18:50:41;5.40;;;2.45;;
55037;SDS011;40937;53.594;10.034;2022-08-21T18:53:10;15.85;;;3.40;;
55037;SDS011;40937;53.594;10.034;2022-08-21T18:55:38;6.68;;;2.70;;
55037;SDS011;40937;53.594;10.034;2022-08-21T18:58:06;9.55;;;3.00;;
55037;SDS011;40937;53.594;10.034;2022-08-21T19:00:36;6.50;;;2.85;;
55037;SDS011;40937;53.594;10.034;2022-08-21T19:03:10;6.80;;;3.15;;
55037;SDS011;40937;53.594;10.034;2022-08-21T19:05:37;6.93;;;2.90;;
55037;SDS011;40937;53.594;10.034;2022-08-21T19:08:07;9.63;;;3.25;;
55037;SDS011;40937;53.594;10.034;2022-08-21T19:10:35;6.75;;;2.53;;
55037;SDS011;40937;53.594;10.034;2022-08-21T19:13:02;7.65;;;3.08;;
55037;SDS011;40937;53.594;10.034;2022-08-21T19:15:29;5.50;;;2.70;;
55037;SDS011;40937;53.594;10.034;2022-08-21T19:18:00;6.88;;;3.33;;
55037;SDS011;40937;53.594;10.034;2022-08-21T19:20:29;9.02;;;3.05;;
55037;SDS011;40937;53.594;10.034;2022-08-21T19:23:00;10.05;;;3.72;;
55037;SDS011;40937;53.594;10.034;2022-08-21T19:25:28;7.80;;;2.63;;
55037;SDS011;40937;53.594;10.034;2022-08-21T19:27:55;7.32;;;2.88;;
55037;SDS011;40937;53.594;10.034;2022-08-21T19:30:22;9.35;;;3.60;;
55037;SDS011;40937;53.594;10.034;2022-08-21T19:32:49;12.63;;;2.97;;
55037;SDS011;40937;53.594;10.034;2022-08-21T19:35:17;10.05;;;3.17;;
55037;SDS011;40937;53.594;10.034;2022-08-21T19:37:44;8.23;;;3.22;;
55037;SDS011;40937;53.594;10.034;2022-08-21T19:40:12;9.32;;;3.10;;
55037;SDS011;40937;53.594;10.034;2022-08-21T19:42:40;12.38;;;3.10;;
55037;SDS011;40937;53.594;10.034;2022-08-21T19:45:07;15.10;;;3.92;;
55037;SDS011;40937;53.594;10.034;2022-08-21T19:47:35;10.77;;;3.55;;
55037;SDS011;40937;53.594;10.034;2022-08-21T19:50:06;10.60;;;3.55;;
55037;SDS011;40937;53.594;10.034;2022-08-21T19:52:35;7.22;;;2.72;;
55037;SDS011;40937;53.594;10.034;2022-08-21T19:55:02;10.70;;;3.55;;
55037;SDS011;40937;53.594;10.034;2022-08-21T19:57:29;9.32;;;3.00;;
55037;SDS011;40937;53.594;10.034;2022-08-21T19:59:56;13.30;;;3.78;;
55037;SDS011;40937;53.594;10.034;2022-08-21T20:02:23;10.80;;;3.90;;
55037;SDS011;40937;53.594;10.034;2022-08-21T20:04:49;11.45;;;3.00;;
55037;SDS011;40937;53.594;10.034;2022-08-21T20:07:16;8.18;;;3.40;;
55037;SDS011;40937;53.594;10.034;2022-08-21T20:09:44;11.50;;;3.70;;
55037;SDS011;40937;53.594;10.034;2022-08-21T20:12:12;10.82;;;3.63;;
55037;SDS011;40937;53.594;10.034;2022-08-21T20:14:41;8.35;;;3.38;;
55037;SDS011;40937;53.594;10.034;2022-08-21T20:17:10;9.02;;;3.80;;
55037;SDS011;40937;53.594;10.034;2022-08-21T20:19:39;10.85;;;3.38;;
55037;SDS011;40937;53.594;10.034;2022-08-21T20:22:07;11.27;;;3.50;;
55037;SDS011;40937;53.594;10.034;2022-08-21T20:24:36;12.65;;;3.60;;
55037;SDS011;40937;53.594;10.034;2022-08-21T20:27:04;8.10;;;3.47;;
55037;SDS011;40937;53.594;10.034;2022-08-21T20:29:31;9.52;;;3.00;;
55037;SDS011;40937;53.594;10.034;2022-08-21T20:31:58;9.38;;;3.28;;
55037;SDS011;40937;53.594;10.034;2022-08-21T20:34:26;6.75;;;2.83;;
55037;SDS011;40937;53.594;10.034;2022-08-21T20:36:53;10.82;;;3.30;;
55037;SDS011;40937;53.594;10.034;2022-08-21T20:39:19;8.07;;;3.30;;
55037;SDS011;40937;53.594;10.034;2022-08-21T20:41:46;10.15;;;3.65;;
55037;SDS011;40937;53.594;10.034;2022-08-21T20:44:15;8.55;;;3.55;;
55037;SDS011;40937;53.594;10.034;2022-08-21T20:46:42;8.38;;;2.85;;
55037;SDS011;40937;53.594;10.034;2022-08-21T20:49:09;11.98;;;3.60;;
55037;SDS011;40937;53.594;10.034;2022-08-21T20:51:41;7.32;;;2.63;;
55037;SDS011;40937;53.594;10.034;2022-08-21T20:54:13;7.43;;;3.22;;
55037;SDS011;40937;53.594;10.034;2022-08-21T20:56:47;10.23;;;3.35;;
55037;SDS011;40937;53.594;10.034;2022-08-21T20:59:20;9.73;;;4.22;;
55037;SDS011;40937;53.594;10.034;2022-08-21T21:02:02;11.27;;;3.80;;
55037;SDS011;40937;53.594;10.034;2022-08-21T21:04:42;7.57;;;2.90;;
55037;SDS011;40937;53.594;10.034;2022-08-21T21:07:14;11.45;;;3.80;;
55037;SDS011;40937;53.594;10.034;2022-08-21T21:09:44;6.28;;;3.13;;
55037;SDS011;40937;53.594;10.034;2022-08-21T21:12:16;11.48;;;3.30;;
55037;SDS011;40937;53.594;10.034;2022-08-21T21:14:50;10.97;;;3.60;;
55037;SDS011;40937;53.594;10.034;2022-08-21T21:17:22;8.80;;;3.70;;
55037;SDS011;40937;53.594;10.034;2022-08-21T21:22:23;6.85;;;2.88;;
55037;SDS011;40937;53.594;10.034;2022-08-21T21:24:55;7.63;;;3.10;;
55037;SDS011;40937;53.594;10.034;2022-08-21T21:27:27;12.52;;;3.15;;
55037;SDS011;40937;53.594;10.034;2022-08-21T21:32:27;6.78;;;3.35;;
55037;SDS011;40937;53.594;10.034;2022-08-21T21:34:54;9.55;;;3.20;;
55037;SDS011;40937;53.594;10.034;2022-08-21T21:37:23;8.70;;;2.80;;
55037;SDS011;40937;53.594;10.034;2022-08-21T21:39:56;7.10;;;3.20;;
55037;SDS011;40937;53.594;10.034;2022-08-21T21:42:32;7.88;;;3.00;;
55037;SDS011;40937;53.594;10.034;2022-08-21T21:45:15;9.38;;;3.10;;
55037;SDS011;40937;53.594;10.034;2022-08-21T23:22:59;8.30;;;3.40;;
55037;SDS011;40937;53.594;10.034;2022-08-21T23:40:43;10.15;;;3.63;;
55037;SDS011;40937;53.594;10.034;2022-08-21T23:43:32;8.25;;;3.47;;
55037;SDS011;40937;53.594;10.034;2022-08-21T23:46:10;8.90;;;3.33;;
55037;SDS011;40937;53.594;10.034;2022-08-21T23:48:58;8.70;;;3.20;;
55037;SDS011;40937;53.594;10.034;2022-08-21T23:51:33;8.18;;;3.25;;
55037;SDS011;40937;53.594;10.034;2022-08-21T23:54:05;12.68;;;4.03;;
55037;SDS011;40937;53.594;10.034;2022-08-21T23:56:45;9.80;;;3.90;;
55037;SDS011;40937;53.594;10.034;2022-08-21T23:59:24;7.78;;;3.30;;
